createdAt,value
2023-01-12T00:01:32.185Z,9.70
2023-01-12T00:04:00.119Z,9.70
2023-01-12T00:06:32.000Z,9.80
2023-01-12T00:09:00.093Z,9.80
2023-01-12T00:11:27.799Z,9.80
2023-01-12T00:13:55.591Z,9.80
2023-01-12T00:16:38.822Z,9.80
2023-01-12T00:19:11.770Z,9.80
2023-01-12T00:21:53.998Z,9.80
2023-01-12T00:24:21.994Z,9.70
2023-01-12T00:26:50.162Z,9.70
2023-01-12T00:29:18.510Z,9.80
2023-01-12T00:31:46.492Z,9.70
2023-01-12T00:34:15.008Z,9.80
2023-01-12T00:36:44.987Z,9.80
2023-01-12T00:39:13.057Z,9.80
2023-01-12T00:41:55.296Z,9.80
2023-01-12T00:44:37.169Z,9.80
2023-01-12T00:47:06.961Z,9.70
2023-01-12T00:49:34.756Z,9.80
2023-01-12T00:52:03.882Z,9.80
2023-01-12T00:54:31.643Z,9.80
2023-01-12T00:56:59.361Z,9.80
2023-01-12T00:59:27.159Z,9.80
2023-01-12T01:01:55.031Z,9.90
2023-01-12T01:04:22.977Z,9.90
2023-01-12T01:06:50.801Z,9.90
2023-01-12T01:09:19.853Z,9.80
2023-01-12T01:11:47.539Z,9.80
2023-01-12T01:14:15.259Z,9.80
2023-01-12T01:16:42.937Z,9.80
2023-01-12T01:19:11.020Z,9.80
2023-01-12T01:21:39.016Z,9.80
2023-01-12T01:24:11.347Z,9.80
2023-01-12T01:26:41.336Z,9.80
2023-01-12T01:29:09.581Z,9.90
2023-01-12T01:31:38.063Z,9.90
2023-01-12T01:34:05.765Z,9.90
2023-01-12T01:36:33.519Z,9.90
2023-01-12T01:39:01.235Z,9.90
2023-01-12T01:41:31.395Z,9.90
2023-01-12T01:44:02.340Z,10.00
2023-01-12T01:46:37.291Z,10.00
2023-01-12T01:49:14.057Z,10.00
2023-01-12T01:51:42.857Z,10.00
2023-01-12T01:54:10.562Z,10.10
2023-01-12T01:56:38.476Z,10.10
2023-01-12T01:59:11.550Z,10.10
2023-01-12T02:01:39.998Z,10.20
2023-01-12T02:04:08.631Z,10.20
2023-01-12T02:06:36.518Z,10.20
2023-01-12T02:09:09.388Z,10.30
2023-01-12T02:11:51.066Z,10.20
2023-01-12T02:14:34.028Z,10.20
2023-01-12T02:17:23.336Z,10.10
2023-01-12T02:20:18.763Z,10.10
2023-01-12T02:23:10.123Z,10.00
2023-01-12T02:26:03.623Z,10.00
2023-01-12T02:28:49.632Z,10.00
2023-01-12T02:31:34.933Z,9.90
2023-01-12T02:34:11.122Z,9.90
2023-01-12T02:36:48.975Z,9.90
2023-01-12T02:39:22.726Z,10.00
2023-01-12T02:42:14.224Z,10.00
2023-01-12T02:44:51.421Z,10.00
2023-01-12T02:47:28.459Z,10.00
2023-01-12T02:49:59.718Z,10.00
2023-01-12T02:52:31.140Z,10.00
2023-01-12T02:55:01.271Z,10.00
2023-01-12T02:57:30.825Z,9.90
2023-01-12T03:00:01.578Z,9.90
2023-01-12T03:02:32.272Z,9.90
2023-01-12T03:04:59.992Z,9.90
2023-01-12T03:07:37.851Z,9.90
2023-01-12T03:10:20.267Z,9.90
2023-01-12T03:12:51.962Z,9.90
2023-01-12T03:15:21.762Z,9.90
2023-01-12T03:17:59.251Z,9.90
2023-01-12T03:20:29.836Z,9.90
2023-01-12T03:23:02.254Z,9.90
2023-01-12T03:25:34.472Z,9.90
2023-01-12T03:28:05.609Z,9.90
2023-01-12T03:30:38.351Z,10.00
2023-01-12T03:33:08.476Z,10.00
2023-01-12T03:35:41.183Z,10.00
2023-01-12T03:38:12.596Z,10.00
2023-01-12T03:40:46.677Z,10.00
2023-01-12T03:43:19.071Z,10.00
2023-01-12T03:45:51.385Z,10.00
2023-01-12T03:48:26.702Z,10.00
2023-01-12T03:50:59.469Z,10.00
2023-01-12T03:53:28.970Z,10.00
2023-01-12T03:56:01.246Z,10.00
2023-01-12T03:58:29.450Z,10.00
2023-01-12T04:00:57.279Z,10.00
2023-01-12T04:03:27.203Z,9.90
2023-01-12T04:05:56.183Z,9.90
2023-01-12T04:08:24.012Z,9.90
2023-01-12T04:10:51.662Z,9.90
2023-01-12T04:13:18.447Z,9.90
2023-01-12T04:15:48.168Z,9.90
2023-01-12T04:18:15.956Z,10.00
2023-01-12T04:20:44.999Z,10.00
2023-01-12T04:23:11.780Z,10.00
2023-01-12T04:25:39.457Z,10.00
2023-01-12T04:28:07.201Z,10.00
2023-01-12T04:30:35.681Z,10.00
2023-01-12T04:33:09.192Z,10.00
2023-01-12T04:35:36.907Z,10.00
2023-01-12T04:38:08.065Z,10.00
2023-01-12T04:40:35.933Z,10.10
2023-01-12T04:43:08.010Z,10.10
2023-01-12T04:45:38.038Z,10.10
2023-01-12T04:48:07.861Z,10.10
2023-01-12T04:50:35.996Z,10.10
2023-01-12T04:53:05.128Z,10.10
2023-01-12T04:55:36.071Z,10.10
2023-01-12T04:58:04.322Z,10.20
2023-01-12T05:00:32.276Z,10.20
2023-01-12T05:03:02.224Z,10.20
2023-01-12T05:05:31.570Z,10.20
2023-01-12T05:08:14.851Z,10.10
2023-01-12T05:10:43.869Z,10.00
2023-01-12T05:13:11.543Z,9.90
2023-01-12T05:15:39.184Z,9.90
2023-01-12T05:18:06.915Z,9.80
2023-01-12T05:20:34.858Z,9.80
2023-01-12T05:23:02.539Z,9.70
2023-01-12T05:25:32.701Z,9.70
2023-01-12T05:28:01.983Z,9.70
2023-01-12T05:30:31.818Z,9.70
2023-01-12T05:33:00.056Z,9.70
2023-01-12T05:35:28.162Z,9.80
2023-01-12T05:37:56.432Z,9.80
2023-01-12T05:40:24.366Z,9.80
2023-01-12T05:43:06.441Z,9.80
2023-01-12T05:45:35.453Z,9.80
2023-01-12T05:48:03.112Z,9.80
2023-01-12T05:50:30.871Z,9.80
2023-01-12T05:53:13.587Z,9.80
2023-01-12T05:55:41.321Z,9.80
2023-01-12T05:58:08.978Z,9.90
2023-01-12T06:00:38.040Z,9.90
2023-01-12T06:03:05.929Z,9.90
2023-01-12T06:05:33.619Z,9.90
2023-01-12T06:08:03.326Z,9.90
2023-01-12T06:10:34.233Z,9.90
2023-01-12T06:13:15.956Z,9.90
2023-01-12T06:15:45.026Z,10.00
2023-01-12T06:18:12.886Z,10.00
2023-01-12T06:20:40.610Z,10.00
2023-01-12T06:23:08.281Z,10.00
2023-01-12T06:25:35.967Z,10.10
2023-01-12T06:28:06.442Z,10.10
2023-01-12T06:30:34.132Z,10.10
2023-01-12T06:33:04.033Z,10.10
2023-01-12T06:35:31.732Z,10.10
2023-01-12T06:37:59.463Z,10.20
2023-01-12T06:40:27.243Z,10.20
2023-01-12T06:42:54.017Z,10.20
2023-01-12T06:45:21.719Z,10.20
2023-01-12T06:47:51.946Z,10.30
2023-01-12T06:50:24.212Z,10.30
2023-01-12T06:52:53.174Z,10.40
2023-01-12T06:55:20.963Z,10.40
2023-01-12T06:57:49.552Z,10.40
2023-01-12T07:00:17.556Z,10.40
2023-01-12T07:02:51.914Z,10.30
2023-01-12T07:05:20.984Z,10.30
2023-01-12T07:07:50.020Z,10.40
2023-01-12T07:10:19.073Z,10.40
2023-01-12T07:12:46.713Z,10.30
2023-01-12T07:15:15.375Z,10.30
2023-01-12T07:17:43.064Z,10.30
2023-01-12T07:20:11.554Z,10.30
2023-01-12T07:22:40.535Z,10.30
2023-01-12T07:25:08.559Z,10.40
2023-01-12T07:27:36.287Z,10.40
2023-01-12T07:30:04.790Z,10.40
2023-01-12T07:32:32.658Z,10.40
2023-01-12T07:35:00.452Z,10.40
2023-01-12T07:37:28.140Z,10.40
2023-01-12T07:39:59.041Z,10.40
2023-01-12T07:42:27.824Z,10.40
2023-01-12T07:44:59.642Z,10.40
2023-01-12T07:47:27.959Z,10.50
2023-01-12T07:50:00.807Z,10.50
2023-01-12T07:52:32.646Z,10.50
2023-01-12T07:55:01.742Z,10.50
2023-01-12T07:57:29.504Z,10.50
2023-01-12T07:59:57.156Z,10.50
2023-01-12T08:02:24.967Z,10.50
2023-01-12T08:04:54.665Z,10.60
2023-01-12T08:07:22.378Z,10.60
2023-01-12T08:09:50.110Z,10.60
2023-01-12T08:12:19.430Z,10.50
2023-01-12T08:14:49.671Z,10.60
2023-01-12T08:17:23.484Z,10.60
2023-01-12T08:20:00.391Z,10.60
2023-01-12T08:22:34.206Z,10.50
2023-01-12T08:25:20.771Z,10.60
2023-01-12T08:27:52.976Z,10.60
2023-01-12T08:30:26.244Z,10.50
2023-01-12T08:32:54.037Z,10.60
2023-01-12T08:35:23.439Z,10.60
2023-01-12T08:37:51.280Z,10.60
2023-01-12T08:40:19.480Z,10.60
2023-01-12T08:42:47.146Z,10.60
2023-01-12T08:45:16.488Z,10.60
2023-01-12T08:47:45.202Z,10.60
2023-01-12T08:50:14.052Z,10.60
2023-01-12T08:52:41.788Z,10.60
2023-01-12T08:55:11.192Z,10.60
2023-01-12T08:57:39.227Z,10.60
2023-01-12T09:00:08.178Z,10.60
2023-01-12T09:02:37.282Z,10.60
2023-01-12T09:05:05.435Z,10.60
2023-01-12T09:07:33.860Z,10.70
2023-01-12T09:10:01.556Z,10.70
2023-01-12T09:12:33.602Z,10.70
2023-01-12T09:15:02.533Z,10.70
2023-01-12T09:17:32.627Z,10.70
2023-01-12T09:20:03.041Z,10.70
2023-01-12T09:22:31.024Z,10.70
2023-01-12T09:24:58.790Z,10.80
2023-01-12T09:27:31.333Z,10.80
2023-01-12T09:30:01.286Z,10.90
2023-01-12T09:32:36.152Z,10.90
2023-01-12T09:35:06.076Z,10.90
2023-01-12T09:37:33.772Z,11.00
2023-01-12T09:40:03.574Z,11.00
2023-01-12T09:42:45.305Z,11.10
2023-01-12T09:45:33.639Z,11.20
2023-01-12T09:48:03.492Z,11.30
2023-01-12T09:50:37.177Z,11.30
2023-01-12T09:53:08.472Z,11.30
2023-01-12T09:55:42.865Z,11.30
2023-01-12T09:58:30.996Z,11.20
2023-01-12T10:01:00.167Z,11.20
2023-01-12T10:03:35.270Z,11.30
2023-01-12T10:06:05.045Z,11.30
2023-01-12T10:08:36.595Z,11.20
2023-01-12T10:11:14.719Z,11.30
2023-01-12T10:14:10.303Z,11.40
2023-01-12T10:16:48.577Z,11.50
2023-01-12T10:19:26.648Z,11.40
2023-01-12T10:21:56.190Z,11.40
2023-01-12T10:24:25.431Z,11.40
2023-01-12T10:27:00.791Z,11.40
2023-01-12T10:29:29.724Z,11.30
2023-01-12T10:31:57.515Z,11.40
2023-01-12T10:34:25.254Z,11.60
2023-01-12T10:36:59.239Z,11.70
2023-01-12T10:39:31.693Z,11.60
2023-01-12T10:42:32.528Z,11.60
2023-01-12T10:45:20.617Z,11.50
2023-01-12T10:47:54.029Z,11.50
2023-01-12T10:50:28.213Z,11.50
2023-01-12T10:53:05.499Z,11.40
2023-01-12T10:55:40.030Z,11.60
2023-01-12T10:58:21.653Z,11.70
2023-01-12T11:00:55.328Z,11.80
2023-01-12T11:03:31.799Z,11.90
2023-01-12T11:06:16.598Z,12.00
2023-01-12T11:08:45.893Z,12.10
2023-01-12T11:11:25.153Z,12.20
2023-01-12T11:13:55.682Z,12.30
2023-01-12T11:16:25.257Z,12.30
2023-01-12T11:19:04.360Z,12.20
2023-01-12T11:21:35.560Z,12.10
2023-01-12T11:24:11.189Z,12.10
2023-01-12T11:26:46.322Z,12.20
2023-01-12T11:29:34.096Z,12.20
2023-01-12T11:32:07.300Z,12.20
2023-01-12T11:34:39.736Z,12.10
2023-01-12T11:37:13.330Z,12.20
2023-01-12T11:39:45.367Z,12.20
2023-01-12T11:42:34.461Z,12.30
2023-01-12T11:45:07.597Z,12.40
2023-01-12T11:47:41.888Z,12.60
2023-01-12T11:50:16.668Z,12.40
2023-01-12T11:52:48.075Z,12.30
2023-01-12T11:55:29.540Z,12.20
2023-01-12T11:58:13.998Z,12.20
2023-01-12T12:00:53.825Z,12.30
2023-01-12T12:03:34.431Z,12.30
2023-01-12T12:06:14.201Z,12.40
2023-01-12T12:08:56.905Z,12.40
2023-01-12T12:11:33.381Z,12.40
2023-01-12T12:14:12.837Z,12.30
2023-01-12T12:16:48.498Z,12.30
2023-01-12T12:19:32.314Z,12.40
2023-01-12T12:22:11.016Z,12.40
2023-01-12T12:24:59.783Z,12.40
2023-01-12T12:27:43.778Z,12.40
2023-01-12T12:30:35.173Z,12.30
2023-01-12T12:33:19.302Z,12.40
2023-01-12T12:35:57.995Z,12.40
2023-01-12T12:38:38.177Z,12.40
2023-01-12T12:41:35.569Z,12.30
2023-01-12T12:44:35.205Z,12.30
2023-01-12T12:47:12.018Z,12.30
2023-01-12T12:49:42.514Z,12.30
2023-01-12T12:52:13.665Z,12.40
2023-01-12T12:54:42.969Z,12.30
2023-01-12T12:57:10.898Z,12.40
2023-01-12T12:59:54.442Z,12.30
2023-01-12T13:02:37.220Z,12.40
2023-01-12T13:05:07.503Z,12.50
2023-01-12T13:07:45.993Z,12.60
2023-01-12T13:10:23.489Z,12.50
2023-01-12T13:13:02.615Z,12.50
2023-01-12T13:15:37.987Z,12.40
2023-01-12T13:18:45.922Z,12.40
2023-01-12T13:21:30.560Z,12.30
2023-01-12T13:24:26.268Z,12.20
2023-01-12T13:26:55.527Z,12.30
2023-01-12T13:29:39.522Z,12.40
2023-01-12T13:32:34.177Z,12.50
2023-01-12T13:35:07.582Z,12.40
2023-01-12T13:37:45.690Z,12.40
2023-01-12T13:40:20.695Z,12.30
2023-01-12T13:43:05.431Z,12.30
2023-01-12T13:45:36.608Z,12.30
2023-01-12T13:48:07.010Z,12.30
2023-01-12T13:50:39.395Z,12.40
2023-01-12T13:53:22.877Z,12.30
2023-01-12T13:56:00.378Z,12.30
2023-01-12T13:58:29.800Z,12.30
2023-01-12T14:01:00.431Z,12.20
2023-01-12T14:03:48.759Z,12.20
2023-01-12T14:06:26.730Z,12.20
2023-01-12T14:09:02.408Z,12.20
2023-01-12T14:11:47.096Z,12.20
2023-01-12T14:14:42.333Z,12.10
2023-01-12T14:17:30.286Z,12.00
2023-01-12T14:19:59.316Z,12.00
2023-01-12T14:22:27.081Z,12.00
2023-01-12T14:25:12.497Z,12.00
2023-01-12T14:27:40.209Z,12.10
2023-01-12T14:30:17.412Z,12.00
2023-01-12T14:32:46.111Z,12.00
2023-01-12T14:35:19.274Z,12.00
2023-01-12T14:37:50.954Z,12.00
2023-01-12T14:40:23.179Z,11.90
2023-01-12T14:43:05.102Z,11.90
2023-01-12T14:45:46.784Z,12.00
2023-01-12T14:48:30.630Z,12.00
2023-01-12T14:51:02.911Z,11.90
2023-01-12T14:53:36.104Z,11.90
2023-01-12T14:56:18.137Z,11.90
2023-01-12T14:58:46.867Z,11.90
2023-01-12T15:01:30.260Z,11.90
2023-01-12T15:03:58.765Z,11.90
2023-01-12T15:06:28.105Z,11.90
2023-01-12T15:08:59.253Z,11.90
2023-01-12T15:11:36.983Z,11.90
2023-01-12T15:14:06.618Z,11.90
2023-01-12T15:16:50.670Z,11.90
2023-01-12T15:19:32.318Z,12.00
2023-01-12T15:22:17.749Z,11.90
2023-01-12T15:24:59.901Z,11.90
2023-01-12T15:27:32.436Z,11.90
2023-01-12T15:30:01.557Z,11.90
2023-01-12T15:32:46.971Z,11.90
2023-01-12T15:35:18.319Z,11.90
2023-01-12T15:37:47.354Z,11.90
2023-01-12T15:40:15.420Z,11.90
2023-01-12T15:42:43.360Z,11.80
2023-01-12T15:45:18.589Z,11.80
2023-01-12T15:47:46.334Z,11.80
2023-01-12T15:50:14.098Z,11.80
2023-01-12T15:52:41.844Z,11.80
2023-01-12T15:55:20.422Z,11.70
2023-01-12T15:57:50.751Z,11.70
2023-01-12T16:00:20.642Z,11.70
2023-01-12T16:02:52.113Z,11.80
2023-01-12T16:05:22.113Z,11.80
2023-01-12T16:07:50.283Z,11.80
2023-01-12T16:10:20.179Z,11.70
2023-01-12T16:12:48.620Z,11.70
2023-01-12T16:15:18.273Z,11.70
2023-01-12T16:17:46.308Z,11.70
2023-01-12T16:20:16.080Z,11.70
2023-01-12T16:22:44.954Z,11.70
2023-01-12T16:25:18.784Z,11.70
2023-01-12T16:27:46.495Z,11.70
2023-01-12T16:30:18.508Z,11.70
2023-01-12T16:32:47.510Z,11.70
2023-01-12T16:35:16.080Z,11.70
2023-01-12T16:37:44.480Z,11.70
2023-01-12T16:40:13.118Z,11.60
2023-01-12T16:42:42.141Z,11.60
2023-01-12T16:45:10.924Z,11.60
2023-01-12T16:47:38.697Z,11.50
2023-01-12T16:50:07.110Z,11.50
2023-01-12T16:52:35.157Z,11.50
2023-01-12T16:55:04.993Z,11.40
2023-01-12T16:57:34.255Z,11.40
2023-01-12T17:00:05.934Z,11.40
2023-01-12T17:02:34.107Z,11.40
2023-01-12T17:05:02.712Z,11.50
2023-01-12T17:07:31.284Z,11.50
2023-01-12T17:09:59.515Z,11.50
2023-01-12T17:12:28.550Z,11.50
2023-01-12T17:14:56.448Z,11.50
2023-01-12T17:17:27.120Z,11.50
2023-01-12T17:19:56.803Z,11.50
2023-01-12T17:22:25.049Z,11.50
2023-01-12T17:24:56.600Z,11.50
2023-01-12T17:27:25.323Z,11.50
2023-01-12T17:29:53.406Z,11.60
2023-01-12T17:32:21.128Z,11.60
2023-01-12T17:34:51.401Z,11.60
2023-01-12T17:37:19.101Z,11.60
2023-01-12T17:39:47.347Z,11.60
2023-01-12T17:42:31.503Z,11.70
2023-01-12T17:45:02.005Z,11.70
2023-01-12T17:47:29.787Z,11.70
2023-01-12T17:49:58.916Z,11.60
2023-01-12T17:52:28.218Z,11.70
2023-01-12T17:54:55.937Z,11.70
2023-01-12T17:57:24.875Z,11.70
2023-01-12T17:59:54.698Z,11.70
2023-01-12T18:02:22.509Z,11.60
2023-01-12T18:04:50.264Z,11.50
2023-01-12T18:07:20.485Z,11.30
2023-01-12T18:09:48.250Z,11.30
2023-01-12T18:12:20.498Z,11.30
2023-01-12T18:14:49.601Z,11.20
2023-01-12T18:17:17.371Z,11.20
2023-01-12T18:19:48.620Z,11.20
2023-01-12T18:22:17.685Z,11.20
2023-01-12T18:24:46.776Z,11.30
2023-01-12T18:27:14.892Z,11.30
2023-01-12T18:29:42.616Z,11.40
2023-01-12T18:32:15.398Z,11.50
2023-01-12T18:34:44.509Z,11.50
2023-01-12T18:37:13.744Z,11.50
2023-01-12T18:39:46.175Z,11.50
2023-01-12T18:42:29.164Z,11.50
2023-01-12T18:44:59.337Z,11.50
2023-01-12T18:47:41.127Z,11.50
2023-01-12T18:50:23.976Z,11.50
2023-01-12T18:53:05.683Z,11.50
2023-01-12T18:55:35.790Z,11.50
2023-01-12T18:58:04.824Z,11.50
2023-01-12T19:00:33.760Z,11.50
2023-01-12T19:03:01.794Z,11.50
2023-01-12T19:05:35.182Z,11.60
2023-01-12T19:08:24.690Z,11.60
2023-01-12T19:10:53.012Z,11.60
2023-01-12T19:13:36.513Z,11.60
2023-01-12T19:16:18.553Z,11.60
2023-01-12T19:18:46.357Z,11.70
2023-01-12T19:21:28.197Z,11.60
2023-01-12T19:24:09.903Z,11.60
2023-01-12T19:26:53.956Z,11.70
2023-01-12T19:29:25.380Z,11.70
2023-01-12T19:31:55.499Z,11.80
2023-01-12T19:34:24.633Z,11.80
2023-01-12T19:36:53.600Z,11.80
2023-01-12T19:39:34.259Z,11.80
2023-01-12T19:42:18.484Z,11.80
2023-01-12T19:44:50.000Z,11.80
2023-01-12T19:47:20.451Z,11.80
2023-01-12T19:49:50.591Z,11.90
2023-01-12T19:52:18.396Z,11.80
2023-01-12T19:54:46.644Z,11.80
2023-01-12T19:57:14.354Z,11.90
2023-01-12T19:59:44.680Z,11.90
2023-01-12T20:02:14.387Z,11.80
2023-01-12T20:04:42.295Z,11.80
2023-01-12T20:07:10.342Z,11.80
2023-01-12T20:09:39.322Z,11.80
2023-01-12T20:12:07.387Z,11.80
2023-01-12T20:14:35.199Z,11.80
2023-01-12T20:17:06.521Z,11.80
2023-01-12T20:19:35.989Z,11.80
2023-01-12T20:22:04.371Z,11.80
2023-01-12T20:24:32.366Z,11.80
2023-01-12T20:27:00.206Z,11.80
2023-01-12T20:29:30.536Z,11.90
2023-01-12T20:31:58.461Z,11.90
2023-01-12T20:34:26.363Z,11.90
2023-01-12T20:36:56.653Z,11.90
2023-01-12T20:39:24.877Z,11.90
2023-01-12T20:41:53.001Z,11.90
2023-01-12T20:44:20.870Z,11.80
2023-01-12T20:46:48.797Z,11.80
2023-01-12T20:49:16.734Z,11.80
2023-01-12T20:51:44.544Z,11.80
2023-01-12T20:54:14.862Z,11.80
2023-01-12T20:56:43.100Z,11.80
2023-01-12T20:59:11.027Z,11.80
2023-01-12T21:01:38.826Z,11.80
2023-01-12T21:04:06.587Z,11.80
2023-01-12T21:06:34.376Z,11.80
2023-01-12T21:09:02.120Z,11.80
2023-01-12T21:11:31.236Z,11.80
2023-01-12T21:13:58.920Z,11.90
2023-01-12T21:16:26.940Z,11.80
2023-01-12T21:18:54.661Z,11.90
2023-01-12T21:21:22.405Z,11.80
2023-01-12T21:23:52.513Z,11.80
2023-01-12T21:26:20.209Z,11.80
2023-01-12T21:28:51.661Z,11.90
2023-01-12T21:31:19.579Z,11.90
2023-01-12T21:33:47.347Z,11.90
2023-01-12T21:36:15.197Z,11.90
2023-01-12T21:38:42.899Z,12.00
2023-01-12T21:41:12.269Z,12.00
2023-01-12T21:43:39.987Z,12.10
2023-01-12T21:46:11.570Z,12.10
2023-01-12T21:48:40.303Z,12.10
2023-01-12T21:51:10.028Z,12.10
2023-01-12T21:53:37.797Z,12.10
2023-01-12T21:56:06.666Z,12.10
2023-01-12T21:58:37.113Z,12.20
2023-01-12T22:01:10.190Z,12.10
2023-01-12T22:03:38.486Z,12.10
2023-01-12T22:06:07.799Z,12.20
2023-01-12T22:08:36.181Z,12.20
2023-01-12T22:11:08.570Z,12.20
2023-01-12T22:13:37.409Z,12.20
2023-01-12T22:16:05.877Z,12.20
2023-01-12T22:18:35.491Z,12.20
2023-01-12T22:21:03.968Z,12.20
2023-01-12T22:23:31.776Z,12.20
2023-01-12T22:26:02.064Z,12.20
2023-01-12T22:28:29.778Z,12.20
2023-01-12T22:30:57.476Z,12.20
2023-01-12T22:33:25.248Z,12.20
2023-01-12T22:35:54.433Z,12.20
2023-01-12T22:38:22.133Z,12.20
2023-01-12T22:40:49.817Z,12.20
2023-01-12T22:43:31.471Z,12.20
2023-01-12T22:45:59.231Z,12.20
2023-01-12T22:48:27.424Z,12.20
2023-01-12T22:50:56.432Z,12.20
2023-01-12T22:53:24.857Z,12.10
2023-01-12T22:55:52.893Z,12.10
2023-01-12T22:58:20.592Z,12.20
2023-01-12T23:00:48.648Z,12.20
2023-01-12T23:03:16.477Z,12.20
2023-01-12T23:05:47.463Z,12.20
2023-01-12T23:08:17.381Z,12.20
2023-01-12T23:10:45.713Z,12.20
2023-01-12T23:13:16.954Z,12.20
2023-01-12T23:15:47.900Z,12.20
2023-01-12T23:18:18.120Z,12.20
2023-01-12T23:20:46.805Z,12.20
2023-01-12T23:23:17.896Z,12.20
2023-01-12T23:25:46.514Z,12.20
2023-01-12T23:28:15.222Z,12.20
2023-01-12T23:30:43.507Z,12.20
2023-01-12T23:33:12.999Z,12.20
2023-01-12T23:35:42.279Z,12.30
2023-01-12T23:38:15.237Z,12.30
2023-01-12T23:40:44.565Z,12.20
2023-01-12T23:43:12.293Z,12.20
2023-01-12T23:45:39.967Z,12.20
2023-01-12T23:48:07.973Z,12.20
2023-01-12T23:50:35.775Z,12.20
2023-01-12T23:53:03.463Z,12.20
2023-01-12T23:55:31.255Z,12.20
2023-01-12T23:58:00.274Z,12.20
